Ana Sayfa
METAR-TAF:

METAR-TAF

Havaalanları :

Kamışlı Havaalanı

Kamışlı, Suriye

Enlem: 37-03N, Boylam: 041-13E, yükseklik: 455 m

Güncel hava durumu gözlemi

Rapor saat 15:00 UTC de 51 dakika önce yapıldı.
Rüzgar batıdan 6 kt
Sıcaklık 32°C
Nem 28%
Basınç 1009 hPa
Görüş mesafesi: 8000 m
2600 ft yükseklikte parçalı bulutlu

METAR: OSKL 261500Z 27006KT 8000 SCT026 32/11 Q1009

Saat: 18:51 (15:51 UTC)


TAF: eksik

4.000'den fazla havaalanı için hava durumu gözlemleri ve tahminleri (METAR ve TAF raporları).

Kullanılabilir istasyonlar harita üzerinde sarı ve kırmızı noktalarla gösterilir.

İstasyonun adını görmek için fareyi noktanın üzerinde gezdirin.

Sonrasında hava gözlem ve tahminlerini görmek için tıklayın.

Haritayı değiştirmek için: yaklaştırmak için siyah artı işaretli yeşil düğmeye ve uzaklaştırmak için de eksi işaretli düğmeye hızla tıklayın; bitişik haritalar için yeşil okları kullanın.


METAR-TAF: